Time;durP1;ratioP1;P1;durP2;ratioP2;P2;SDS_P1;SDS_P2;PMS_P1;PMS_P2;Temp;Humidity;BMP_temperature;BMP_pressure;BME280_temperature;BME280_humidity;BME280_pressure;Samples;Min_cycle;Max_cycle;Signal;HPM_P1;HPM_P2
2022/01/24 00:00:08;;;;;;;4.60;4.10;;;;;;;8.57;53.75;99635.25;8415937;28;20231;-83
2022/01/24 00:04:11;;;;;;;5.90;4.67;;;;;;;8.48;53.83;99645.66;8383223;28;20231;-82
2022/01/24 00:08:17;;;;;;;7.13;4.33;;;;;;;8.60;53.77;99645.53;8382808;28;20227;-82
2022/01/24 00:12:29;;;;;;;5.43;4.43;;;;;;;8.54;54.36;99643.88;8382908;28;20231;-82
2022/01/24 00:16:47;;;;;;;6.27;4.80;;;;;;;8.51;54.37;99633.59;8382780;28;20514;-82
2022/01/24 00:29:33;;;;;;;6.37;4.97;;;;;;;8.47;54.23;99626.72;8382280;28;20231;-82
2022/01/24 00:33:36;;;;;;;6.37;5.70;;;;;;;8.44;54.46;99613.84;8381888;28;20231;-82
2022/01/24 00:37:40;;;;;;;6.80;6.03;;;;;;;8.43;54.31;99619.88;8382449;28;20235;-81
2022/01/24 00:41:49;;;;;;;7.07;6.37;;;;;;;8.37;54.08;99623.34;8382273;28;20242;-82
2022/01/24 00:45:59;;;;;;;6.80;6.03;;;;;;;8.53;54.52;99611.19;8381946;28;20412;-82
2022/01/24 00:58:48;;;;;;;9.53;6.90;;;;;;;8.49;54.26;99621.53;8399447;28;20226;-82
2022/01/24 01:02:54;;;;;;;8.17;6.07;;;;;;;8.53;54.84;99618.06;8414489;28;20324;-82
2022/01/24 01:07:04;;;;;;;8.23;6.20;;;;;;;8.44;54.50;99621.59;8414881;28;20504;-82
2022/01/24 01:19:49;;;;;;;8.93;6.57;;;;;;;8.47;54.45;99616.38;8413642;28;20230;-83
2022/01/24 01:23:56;;;;;;;10.23;7.20;;;;;;;8.45;54.27;99610.38;8413065;28;20231;-83
2022/01/24 01:28:03;;;;;;;8.00;7.10;;;;;;;8.25;54.52;99605.38;8414096;28;20231;-82
2022/01/24 01:32:14;;;;;;;11.63;7.80;;;;;;;7.83;55.43;99594.53;8413469;28;20235;-83
2022/01/24 01:36:25;;;;;;;8.40;6.97;;;;;;;8.16;55.51;99597.72;8413808;28;20230;-83
2022/01/24 01:53:50;;;;;;;6.63;5.90;;;;;;;7.84;55.64;99580.75;8422639;28;20390;-83
2022/01/24 01:57:53;;;;;;;6.23;5.27;;;;;;;7.99;55.34;99585.81;8419881;28;20230;-82
2022/01/24 02:01:56;;;;;;;6.07;5.47;;;;;;;7.99;55.16;99590.97;8420268;28;20232;-82
2022/01/24 02:06:00;;;;;;;6.13;5.53;;;;;;;8.01;55.17;99586.66;8418760;28;20541;-82
2022/01/24 02:10:06;;;;;;;5.30;4.80;;;;;;;8.23;54.92;99584.75;8419782;28;20242;-82
2022/01/24 02:14:13;;;;;;;6.00;4.67;;;;;;;8.18;54.96;99594.25;8420191;28;20230;-82
2022/01/24 02:18:30;;;;;;;9.60;6.30;;;;;;;8.18;55.85;99591.66;8419863;28;20298;-82
2022/01/24 02:22:44;;;;;;;7.93;5.97;;;;;;;8.31;55.74;99581.25;8419383;28;20333;-82
2022/01/24 02:26:49;;;;;;;7.20;6.23;;;;;;;8.27;56.44;99584.72;8419184;28;20309;-82
2022/01/24 02:31:05;;;;;;;7.33;6.40;;;;;;;8.25;56.29;99583.88;8419546;28;20238;-81
2022/01/24 02:35:09;;;;;;;7.50;6.30;;;;;;;8.11;56.92;99578.81;8419106;28;20226;-81
2022/01/24 02:39:38;;;;;;;7.23;6.43;;;;;;;8.35;55.95;99573.44;8419509;28;20233;-81
2022/01/24 02:52:26;;;;;;;7.27;6.40;;;;;;;8.12;57.09;99568.50;8418323;28;20553;-82
2022/01/24 02:56:31;;;;;;;7.27;6.43;;;;;;;8.30;56.57;99571.78;8418171;28;20396;-82
2022/01/24 03:00:35;;;;;;;7.10;6.40;;;;;;;8.29;56.57;99555.44;8417596;28;20235;-83
2022/01/24 03:04:38;;;;;;;7.90;6.10;;;;;;;8.23;56.76;99561.53;8418183;28;20344;-82
2022/01/24 03:08:42;;;;;;;7.13;6.27;;;;;;;8.17;56.84;99563.31;8418109;28;20237;-82
2022/01/24 03:12:57;;;;;;;7.93;6.63;;;;;;;8.10;55.94;99548.75;8417853;28;20231;-82
2022/01/24 03:17:00;;;;;;;6.10;5.50;;;;;;;8.19;56.72;99554.69;8416501;28;20226;-83
2022/01/24 03:21:05;;;;;;;5.87;4.97;;;;;;;8.31;56.06;99545.09;8417662;28;20231;-84
2022/01/24 03:25:08;;;;;;;5.20;4.40;;;;;;;8.35;55.84;99542.47;8417642;28;20223;-83
2022/01/24 03:29:13;;;;;;;4.77;4.20;;;;;;;8.34;55.79;99538.19;8416345;28;20223;-83
2022/01/24 03:33:16;;;;;;;4.60;4.07;;;;;;;8.27;55.60;99521.06;8415981;28;20253;-83
2022/01/24 03:37:19;;;;;;;5.13;4.13;;;;;;;8.37;55.38;99519.22;8417835;28;20230;-83
2022/01/24 03:41:22;;;;;;;4.10;3.73;;;;;;;8.24;56.31;99513.31;8417041;28;20234;-83
2022/01/24 03:45:39;;;;;;;4.33;3.83;;;;;;;8.11;56.06;99509.16;8416987;28;20239;-82
2022/01/24 03:49:48;;;;;;;4.27;3.83;;;;;;;8.35;55.75;99515.81;8416727;28;20418;-82
2022/01/24 03:53:52;;;;;;;4.87;3.83;;;;;;;8.23;55.87;99512.47;8417150;28;20258;-82
2022/01/24 03:57:55;;;;;;;5.60;4.37;;;;;;;8.30;55.73;99515.88;8416670;28;20524;-82
2022/01/24 04:02:00;;;;;;;5.90;4.10;;;;;;;8.31;55.97;99527.03;8416436;28;20235;-82
2022/01/24 04:06:05;;;;;;;5.87;4.10;;;;;;;8.18;56.28;99515.97;8416508;28;20328;-82
2022/01/24 04:10:09;;;;;;;5.17;4.43;;;;;;;8.28;56.07;99512.44;8415622;28;20231;-82
2022/01/24 04:14:27;;;;;;;4.73;4.03;;;;;;;8.26;56.33;99508.16;8415656;28;20239;-81
2022/01/24 04:18:38;;;;;;;5.33;4.47;;;;;;;8.33;55.85;99517.56;8415801;28;20288;-82
2022/01/24 04:22:49;;;;;;;5.83;4.60;;;;;;;8.27;56.11;99502.13;8415192;28;20223;-83
2022/01/24 04:26:52;;;;;;;5.00;4.50;;;;;;;8.26;56.43;99498.69;8415397;28;20539;-83
2022/01/24 04:30:55;;;;;;;4.87;4.30;;;;;;;8.29;55.74;99508.13;8414909;28;20341;-83
2022/01/24 04:35:00;;;;;;;4.40;3.93;;;;;;;8.17;55.80;99485.91;8415353;28;20422;-83
2022/01/24 04:39:04;;;;;;;5.30;4.30;;;;;;;8.15;56.70;99497.97;8414224;28;20230;-83
2022/01/24 04:43:27;;;;;;;4.83;4.27;;;;;;;8.15;56.38;99503.97;8415315;28;20230;-81
2022/01/24 04:47:36;;;;;;;6.33;5.70;;;;;;;8.25;56.27;99515.06;8415063;28;20234;-81
2022/01/24 04:51:54;;;;;;;5.23;4.33;;;;;;;8.26;56.55;99500.41;8414374;28;20239;-81
2022/01/24 04:55:57;;;;;;;4.73;4.33;;;;;;;8.30;56.49;99508.13;8414979;28;20226;-83
2022/01/24 05:00:06;;;;;;;9.97;4.33;;;;;;;8.28;56.49;99509.00;8380588;28;20402;-82
2022/01/24 05:04:09;;;;;;;4.67;3.93;;;;;;;8.24;56.58;99515.91;8381634;28;20227;-82
2022/01/24 05:08:15;;;;;;;5.63;4.33;;;;;;;8.29;56.03;99514.16;8381440;28;20227;-83
2022/01/24 05:12:27;;;;;;;4.40;4.00;;;;;;;8.12;56.68;99518.63;8381286;28;20231;-82
2022/01/24 05:25:12;;;;;;;8.20;4.27;;;;;;;8.27;56.60;99512.47;8381456;28;20238;-82
2022/01/24 05:29:15;;;;;;;4.60;4.17;;;;;;;8.17;56.67;99503.97;8381045;28;20427;-84
2022/01/24 05:33:19;;;;;;;7.20;4.30;;;;;;;8.23;56.57;99511.63;8381251;28;20235;-84
2022/01/24 05:37:23;;;;;;;7.23;4.30;;;;;;;8.25;56.66;99514.19;8380646;28;20231;-81
2022/01/24 05:41:27;;;;;;;4.63;4.13;;;;;;;8.32;56.48;99521.00;8380840;28;20236;-82
2022/01/24 05:45:30;;;;;;;4.83;4.33;;;;;;;8.11;56.75;99511.75;8380801;28;20238;-82
2022/01/24 05:49:33;;;;;;;4.30;3.90;;;;;;;8.09;57.21;99526.38;8379910;28;20276;-84
2022/01/24 05:53:36;;;;;;;6.53;4.23;;;;;;;8.01;57.05;99526.44;8406514;28;20241;-84
2022/01/24 05:57:41;;;;;;;5.33;4.30;;;;;;;8.10;56.57;99528.09;8413886;28;20235;-84
2022/01/24 06:01:44;;;;;;;5.30;4.47;;;;;;;7.91;56.63;99533.41;8413484;28;20238;-84
2022/01/24 06:05:47;;;;;;;5.30;4.60;;;;;;;8.00;57.45;99535.06;8433078;28;20233;-83
2022/01/24 06:09:51;;;;;;;4.00;3.50;;;;;;;8.07;56.83;99535.88;8416275;28;23009;-83
2022/01/24 06:13:57;;;;;;;5.83;3.70;;;;;;;8.08;56.65;99538.44;8446446;28;20234;-82
2022/01/24 06:18:00;;;;;;;5.73;3.30;;;;;;;8.12;56.78;99529.78;8446994;28;20411;-84
2022/01/24 06:22:04;;;;;;;6.20;3.30;;;;;;;8.17;55.69;99533.19;8445446;28;20230;-84
2022/01/24 06:26:07;;;;;;;3.93;3.53;;;;;;;8.13;56.10;99528.06;8445954;28;20230;-85
2022/01/24 06:30:13;;;;;;;5.33;3.57;;;;;;;7.96;56.70;99535.97;8445325;28;20230;-83
2022/01/24 06:34:16;;;;;;;5.33;4.43;;;;;;;8.15;56.20;99534.94;8451684;28;20234;-83
2022/01/24 06:38:18;;;;;;;4.50;4.10;;;;;;;8.26;56.68;99541.72;8451759;28;20241;-84
2022/01/24 06:42:23;;;;;;;5.83;3.87;;;;;;;8.13;56.48;99544.41;8452157;28;20290;-83
2022/01/24 06:46:27;;;;;;;4.10;3.70;;;;;;;8.05;56.47;99555.66;8451560;28;20291;-83
2022/01/24 06:50:31;;;;;;;5.03;3.80;;;;;;;7.65;57.54;99562.00;8450670;28;20241;-83
2022/01/24 06:54:34;;;;;;;3.50;3.20;;;;;;;7.92;57.09;99571.25;8417072;28;20245;-83
2022/01/24 06:58:38;;;;;;;5.40;4.00;;;;;;;7.94;56.82;99573.81;8417229;28;20423;-83
2022/01/24 07:02:43;;;;;;;4.33;3.53;;;;;;;8.13;56.61;99572.81;8417563;28;20234;-83
2022/01/24 07:06:46;;;;;;;4.10;3.60;;;;;;;7.90;56.70;99573.00;8417528;28;20429;-82
2022/01/24 07:10:50;;;;;;;6.63;5.43;;;;;;;7.97;56.72;99571.22;8415960;28;20235;-82
2022/01/24 07:14:54;;;;;;;5.07;4.10;;;;;;;8.11;56.67;99569.38;8416764;28;20526;-82
2022/01/24 07:18:59;;;;;;;7.50;4.40;;;;;;;8.13;56.53;99582.25;8416746;28;20345;-82
2022/01/24 07:23:02;;;;;;;10.03;7.50;;;;;;;8.13;56.56;99587.41;8415894;28;20227;-84
2022/01/24 07:27:06;;;;;;;7.37;5.03;;;;;;;7.98;56.96;99591.84;8415003;28;20230;-83
2022/01/24 07:31:09;;;;;;;6.47;4.23;;;;;;;8.08;56.71;99590.03;8416793;28;20427;-83
2022/01/24 07:35:14;;;;;;;4.77;4.33;;;;;;;7.71;57.37;99600.66;8416597;28;20251;-84
2022/01/24 07:39:17;;;;;;;5.77;3.87;;;;;;;7.80;57.36;99594.56;8415330;28;20231;-83
2022/01/24 07:43:21;;;;;;;7.60;4.07;;;;;;;7.60;57.18;99589.53;8414872;28;20411;-83
2022/01/24 07:47:25;;;;;;;7.13;3.70;;;;;;;7.51;57.29;99587.88;8415772;28;20245;-84
2022/01/24 07:51:30;;;;;;;4.43;4.00;;;;;;;7.63;58.03;99600.69;8415605;28;20234;-83
2022/01/24 07:55:33;;;;;;;7.07;4.40;;;;;;;7.88;57.48;99591.91;8415344;28;20225;-84
2022/01/24 07:59:37;;;;;;;5.30;4.13;;;;;;;7.80;57.07;99608.28;8415921;28;20595;-83
2022/01/24 08:03:40;;;;;;;4.43;3.57;;;;;;;7.75;56.78;99610.06;8413977;28;20235;-82
2022/01/24 08:07:45;;;;;;;2.90;2.60;;;;;;;7.38;57.08;99615.44;8415142;28;20231;-82
2022/01/24 08:11:48;;;;;;;2.93;2.10;;;;;;;7.40;56.10;99612.84;8414945;28;20231;-82
2022/01/24 08:15:51;;;;;;;3.33;1.67;;;;;;;6.79;58.03;99621.69;8415260;28;20299;-83
2022/01/24 08:19:55;;;;;;;10.40;9.30;;;;;;;6.89;58.13;99612.19;8415107;28;20237;-83
2022/01/24 08:24:02;;;;;;;4.13;2.80;;;;;;;6.70;58.67;99617.41;8414917;28;20231;-83
2022/01/24 08:28:05;;;;;;;7.87;5.10;;;;;;;7.25;57.19;99613.78;8415044;28;20230;-83
2022/01/24 08:32:11;;;;;;;3.57;2.17;;;;;;;6.72;58.15;99614.81;8414916;28;20242;-84
2022/01/24 08:36:15;;;;;;;4.87;2.50;;;;;;;6.61;58.90;99615.72;8414970;28;20233;-83
2022/01/24 08:40:24;;;;;;;3.57;2.50;;;;;;;6.51;59.76;99616.59;8414392;28;20352;-83
2022/01/24 08:48:46;;;;;;;7.67;4.50;;;;;;;6.96;58.66;99608.75;8413490;28;20238;-83
2022/01/24 08:52:49;;;;;;;3.50;2.10;;;;;;;6.90;58.22;99606.19;8396370;28;20580;-83
2022/01/24 08:56:54;;;;;;;2.83;2.20;;;;;;;6.97;57.85;99613.91;8380541;28;20231;-84
2022/01/24 09:00:58;;;;;;;3.93;2.20;;;;;;;6.80;58.37;99613.94;8380767;28;20335;-83
2022/01/24 09:05:02;;;;;;;3.43;2.20;;;;;;;6.55;59.38;99620.88;8380080;28;20322;-83
2022/01/24 09:09:08;;;;;;;7.77;2.37;;;;;;;7.46;78.49;99625.69;8380443;28;20231;-86
2022/01/24 09:13:13;;;;;;;5.83;2.53;;;;;;;7.90;56.58;99623.72;8378939;28;20239;-83
2022/01/24 09:17:16;;;;;;;6.37;2.57;;;;;;;8.56;56.14;99629.22;8381048;28;20227;-83
2022/01/24 09:21:20;;;;;;;3.83;2.00;;;;;;;8.98;54.08;99628.78;8381077;28;20234;-86
2022/01/24 09:25:23;;;;;;;3.67;2.30;;;;;;;7.67;56.00;99624.72;8380298;28;20246;-85
2022/01/24 09:29:29;;;;;;;3.03;2.00;;;;;;;7.56;56.75;99631.69;8380291;28;20239;-84
2022/01/24 09:33:32;;;;;;;3.63;1.97;;;;;;;7.33;56.52;99635.22;8379639;28;20442;-83
2022/01/24 09:37:35;;;;;;;5.57;1.80;;;;;;;7.38;56.37;99638.63;8380078;28;20463;-82
2022/01/24 09:41:38;;;;;;;3.30;1.67;;;;;;;6.84;57.77;99620.81;8379979;28;20231;-84
2022/01/24 09:46:04;;;;;;;2.53;1.60;;;;;;;6.82;58.09;99637.13;8379683;28;20232;-83
2022/01/24 09:50:11;;;;;;;4.77;1.80;;;;;;;7.10;57.65;99634.44;8380233;28;20269;-85
2022/01/24 09:54:14;;;;;;;2.17;1.50;;;;;;;6.95;57.71;99637.94;8410848;28;20251;-85
2022/01/24 09:58:18;;;;;;;6.07;2.03;;;;;;;7.25;57.11;99644.69;8413947;28;20534;-85
2022/01/24 10:02:24;;;;;;;4.80;2.83;;;;;;;6.92;57.94;99643.09;8413975;28;20230;-85
2022/01/24 10:06:28;;;;;;;6.40;2.50;;;;;;;7.19;57.77;99637.00;8417073;28;20227;-84
2022/01/24 10:10:38;;;;;;;3.23;2.20;;;;;;;7.05;57.94;99645.63;8421208;28;20226;-85
2022/01/24 10:19:26;;;;;;;4.20;2.70;;;;;;;7.02;57.92;99650.78;8422007;28;20324;-84
2022/01/24 10:23:34;;;;;;;4.27;2.90;;;;;;;7.41;57.45;99650.66;8420803;28;20511;-85
2022/01/24 10:27:37;;;;;;;5.00;2.90;;;;;;;7.10;57.69;99643.06;8421450;28;20234;-84
2022/01/24 10:31:47;;;;;;;6.27;3.23;;;;;;;6.92;58.08;99643.09;8420697;28;20235;-84
2022/01/24 10:35:52;;;;;;;6.40;3.53;;;;;;;7.44;56.57;99642.88;8419632;28;20326;-84
2022/01/24 10:39:59;;;;;;;4.40;3.70;;;;;;;7.38;57.21;99636.03;8416230;28;20226;-84
2022/01/24 10:44:04;;;;;;;8.37;3.63;;;;;;;7.48;56.41;99636.00;8433942;28;20291;-84
2022/01/24 10:48:28;;;;;;;5.40;3.40;;;;;;;7.76;55.85;99628.97;8452287;28;20234;-84
2022/01/24 10:52:34;;;;;;;4.03;2.90;;;;;;;7.40;55.71;99618.00;8438660;28;20218;-83
2022/01/24 10:56:39;;;;;;;6.17;2.93;;;;;;;7.80;55.41;99616.03;8432486;28;20233;-83
2022/01/24 11:00:42;;;;;;;4.13;2.77;;;;;;;7.71;55.63;99610.09;8419740;28;20226;-84
2022/01/24 11:04:45;;;;;;;4.40;2.30;;;;;;;7.74;56.14;99610.06;8433922;28;20236;-83
2022/01/24 11:08:50;;;;;;;6.00;3.00;;;;;;;7.50;55.79;99603.34;8433187;28;20561;-84
2022/01/24 11:12:53;;;;;;;4.17;2.60;;;;;;;7.32;56.66;99600.00;8432927;28;20237;-82
2022/01/24 11:16:58;;;;;;;5.63;3.27;;;;;;;7.42;56.64;99599.09;8430057;28;20384;-83
2022/01/24 11:21:12;;;;;;;5.03;2.70;;;;;;;7.51;55.64;99595.59;8440216;28;20226;-85
2022/01/24 11:25:16;;;;;;;5.50;3.20;;;;;;;7.91;54.84;99597.91;8438042;28;20284;-82
2022/01/24 11:29:20;;;;;;;4.90;3.07;;;;;;;7.64;55.51;99599.81;8447851;28;20230;-83
2022/01/24 11:33:32;;;;;;;6.37;3.40;;;;;;;7.50;55.73;99595.59;8432394;28;20223;-83
2022/01/24 11:37:39;;;;;;;3.33;2.90;;;;;;;7.58;55.48;99593.84;8413367;28;20538;-83
2022/01/24 11:41:45;;;;;;;5.97;3.07;;;;;;;7.44;55.57;99594.78;8416772;28;20242;-83
2022/01/24 11:45:59;;;;;;;6.20;3.30;;;;;;;7.38;56.40;99587.06;8416717;28;20425;-83
2022/01/24 11:50:31;;;;;;;4.90;2.93;;;;;;;7.64;55.24;99579.19;8417152;28;20298;-82
2022/01/24 11:54:49;;;;;;;6.67;2.50;;;;;;;7.78;54.34;99576.50;8431851;28;20283;-82
2022/01/24 11:59:22;;;;;;;5.77;2.47;;;;;;;7.53;55.58;99574.97;8452538;28;20438;-82
2022/01/24 12:03:27;;;;;;;5.40;2.80;;;;;;;7.13;56.04;99583.78;8452542;28;20230;-82
2022/01/24 12:07:32;;;;;;;5.43;2.30;;;;;;;7.41;55.71;99566.44;8452398;28;20234;-79
2022/01/24 12:11:37;;;;;;;5.87;3.30;;;;;;;7.22;56.28;99563.13;8449117;28;20333;-81
2022/01/24 12:16:04;;;;;;;6.63;3.10;;;;;;;7.10;56.37;99563.19;8450166;28;20244;-81
2022/01/24 12:20:55;;;;;;;4.33;2.30;;;;;;;7.10;56.42;99554.59;8427369;28;20336;-80
2022/01/24 12:24:58;;;;;;;3.50;2.40;;;;;;;7.52;55.69;99555.19;8308272;28;20228;-81
2022/01/24 12:29:04;;;;;;;4.53;3.10;;;;;;;7.58;55.26;99547.44;8374598;28;20223;-81
2022/01/24 12:33:09;;;;;;;12.43;8.87;;;;;;;7.34;56.64;99549.31;8449801;28;20255;-80
2022/01/24 12:37:13;;;;;;;5.87;3.80;;;;;;;7.46;56.04;99553.50;8452648;28;20540;-80
2022/01/24 12:41:20;;;;;;;5.53;3.30;;;;;;;6.88;57.62;99554.69;8443329;28;20218;-83
2022/01/24 12:49:48;;;;;;;7.00;3.50;;;;;;;7.29;56.46;99551.06;8428565;28;20540;-83
2022/01/24 12:53:54;;;;;;;5.93;4.20;;;;;;;7.00;57.58;99551.19;8431110;28;20529;-83
2022/01/24 12:57:59;;;;;;;6.70;3.33;;;;;;;7.56;55.62;99544.03;8426910;28;20245;-83
2022/01/24 13:02:03;;;;;;;5.17;3.70;;;;;;;7.55;55.69;99544.88;8441405;28;20402;-84
2022/01/24 13:06:15;;;;;;;7.00;3.50;;;;;;;7.12;57.28;99546.00;8450591;28;20563;-82
2022/01/24 13:10:21;;;;;;;10.57;3.10;;;;;;;7.46;55.98;99527.75;8447313;28;20237;-83
2022/01/24 13:14:29;;;;;;;4.87;2.83;;;;;;;7.72;55.03;99534.44;8441191;28;20226;-83
2022/01/24 13:22:58;;;;;;;5.30;3.23;;;;;;;7.91;54.79;99537.72;8449399;28;20230;-82
2022/01/24 13:27:09;;;;;;;6.47;3.53;;;;;;;7.35;55.34;99537.25;8449746;28;20329;-83
2022/01/24 13:31:13;;;;;;;7.63;3.30;;;;;;;7.84;55.03;99529.19;8445776;28;20233;-83
2022/01/24 13:35:18;;;;;;;4.07;3.50;;;;;;;7.56;55.94;99526.81;8452229;28;20236;-82
2022/01/24 13:39:23;;;;;;;9.10;4.20;;;;;;;7.62;55.54;99526.78;8450455;28;20230;-83
2022/01/24 13:43:32;;;;;;;7.37;3.90;;;;;;;7.36;56.12;99519.22;8430256;28;20418;-81
2022/01/24 13:47:35;;;;;;;9.00;3.97;;;;;;;7.23;56.92;99528.78;8427169;28;20337;-84
2022/01/24 13:51:42;;;;;;;6.00;4.03;;;;;;;7.10;57.29;99528.81;8433826;28;20226;-81
2022/01/24 13:55:48;;;;;;;7.67;3.60;;;;;;;7.29;56.13;99524.41;8432687;28;20236;-81
2022/01/24 13:59:56;;;;;;;7.43;3.73;;;;;;;7.79;55.42;99521.50;8436481;28;20237;-80
2022/01/24 14:04:00;;;;;;;6.93;3.87;;;;;;;7.57;55.40;99525.94;8420854;28;20230;-81
2022/01/24 14:08:14;;;;;;;5.53;3.87;;;;;;;7.93;54.66;99523.94;8421936;28;20226;-83
2022/01/24 14:12:21;;;;;;;7.40;4.10;;;;;;;8.02;54.21;99526.44;8433013;28;20227;-81
2022/01/24 14:16:38;;;;;;;6.83;3.97;;;;;;;7.59;55.10;99523.34;8433400;28;20241;-82
2022/01/24 14:20:42;;;;;;;7.10;4.13;;;;;;;7.08;56.54;99517.66;8424863;28;20226;-82
2022/01/24 14:24:49;;;;;;;7.00;3.90;;;;;;;7.67;55.30;99515.56;8398181;28;20435;-83
2022/01/24 14:29:07;;;;;;;7.90;4.07;;;;;;;7.63;55.16;99525.03;8404506;28;20235;-82
2022/01/24 14:33:13;;;;;;;8.33;4.47;;;;;;;7.92;54.73;99526.53;8418239;28;20227;-84
2022/01/24 14:37:16;;;;;;;10.17;3.93;;;;;;;7.97;55.13;99525.63;8445288;28;20232;-82
2022/01/24 14:41:33;;;;;;;9.60;4.30;;;;;;;7.40;55.74;99518.31;8439795;28;20241;-82
2022/01/24 14:45:37;;;;;;;6.13;3.80;;;;;;;7.06;56.41;99533.13;8452633;28;20226;-82
2022/01/24 14:49:43;;;;;;;6.07;3.67;;;;;;;7.67;55.32;99531.88;8452715;28;20431;-83
2022/01/24 14:53:47;;;;;;;10.33;4.70;;;;;;;7.72;54.95;99526.72;8456335;28;20297;-82
2022/01/24 14:57:51;;;;;;;8.97;4.90;;;;;;;7.15;56.52;99535.66;8457202;28;20237;-80
2022/01/24 15:01:57;;;;;;;7.93;4.10;;;;;;;7.07;57.10;99534.00;8455089;28;20233;-82
2022/01/24 15:06:01;;;;;;;9.57;4.77;;;;;;;7.45;55.28;99533.78;8452858;28;20238;-80
2022/01/24 15:10:06;;;;;;;10.20;4.77;;;;;;;7.39;55.81;99541.56;8451240;28;20226;-82
2022/01/24 15:14:15;;;;;;;9.37;4.80;;;;;;;7.67;55.18;99538.78;8450915;28;20230;-82
2022/01/24 15:27:02;;;;;;;9.43;5.43;;;;;;;7.21;55.81;99543.34;8451128;28;20234;-81
2022/01/24 15:31:04;;;;;;;8.47;5.67;;;;;;;7.85;54.58;99542.94;8451350;28;20226;-83
2022/01/24 15:35:10;;;;;;;7.83;5.63;;;;;;;7.87;53.77;99543.78;8451219;28;20423;-83
2022/01/24 15:39:15;;;;;;;9.70;6.13;;;;;;;7.99;53.79;99548.84;8459225;28;20234;-84
2022/01/24 15:47:44;;;;;;;14.63;6.40;;;;;;;7.78;54.71;99540.41;8452154;28;20560;-84
2022/01/24 15:51:49;;;;;;;11.73;7.50;;;;;;;7.55;55.03;99532.84;8442231;28;20235;-81
2022/01/24 15:56:14;;;;;;;9.93;7.93;;;;;;;7.68;54.88;99535.34;8419622;28;20413;-82
2022/01/24 16:00:20;;;;;;;12.03;6.90;;;;;;;7.76;53.84;99536.13;8419255;28;20233;-82
2022/01/24 16:04:23;;;;;;;10.53;6.87;;;;;;;7.95;54.27;99540.25;8416179;28;20238;-79
2022/01/24 16:08:27;;;;;;;9.57;7.90;;;;;;;7.45;55.07;99533.78;8417405;28;20223;-80
2022/01/24 16:12:33;;;;;;;8.93;5.83;;;;;;;7.62;54.94;99519.03;8417321;28;20222;-80
2022/01/24 16:16:37;;;;;;;9.27;5.50;;;;;;;7.78;54.39;99547.28;8416871;28;20399;-83
2022/01/24 16:20:50;;;;;;;8.30;6.00;;;;;;;8.07;54.59;99547.03;8418615;28;20284;-82
2022/01/24 16:29:15;;;;;;;7.93;6.10;;;;;;;8.03;54.15;99540.19;8418715;28;20241;-83
2022/01/24 16:33:19;;;;;;;9.60;6.27;;;;;;;7.78;54.56;99537.81;8417790;28;20404;-82
2022/01/24 16:37:22;;;;;;;14.03;10.00;;;;;;;7.90;54.16;99546.31;8419031;28;20236;-81
2022/01/24 16:41:35;;;;;;;14.60;10.30;;;;;;;7.79;55.00;99536.13;8417430;28;20391;-81
2022/01/24 16:49:59;;;;;;;12.37;7.47;;;;;;;7.42;55.46;99544.09;8416732;28;20229;-80
2022/01/24 16:54:11;;;;;;;11.40;7.60;;;;;;;7.72;54.86;99534.44;8434748;28;20237;-80
2022/01/24 16:58:16;;;;;;;13.17;7.80;;;;;;;7.48;54.96;99549.22;8433729;28;20435;-82
2022/01/24 17:02:24;;;;;;;11.77;9.10;;;;;;;7.20;56.47;99535.66;8431796;28;20298;-81
2022/01/24 17:06:27;;;;;;;10.53;7.70;;;;;;;6.99;57.19;99539.19;8409385;28;20526;-82
2022/01/24 17:10:30;;;;;;;16.35;10.82;;;;;;;7.70;54.93;99537.03;8414255;28;20400;-81
2022/01/24 17:14:37;;;;;;;11.13;7.27;;;;;;;7.46;55.58;99532.91;8414240;28;20231;-81
2022/01/24 17:18:40;;;;;;;8.80;6.50;;;;;;;7.73;54.81;99536.13;8416327;28;20254;-81
2022/01/24 17:22:43;;;;;;;10.60;8.93;;;;;;;7.39;55.20;99538.97;8416076;28;20340;-81
2022/01/24 17:26:46;;;;;;;17.67;10.57;;;;;;;7.62;54.96;99541.41;8415330;28;20246;-82
2022/01/24 17:30:53;;;;;;;12.23;7.50;;;;;;;7.15;56.76;99545.97;8414903;28;20229;-82
2022/01/24 17:34:56;;;;;;;9.77;7.17;;;;;;;7.04;56.18;99535.75;8415098;28;20427;-81
2022/01/24 17:38:59;;;;;;;9.77;6.13;;;;;;;7.19;56.24;99537.34;8415409;28;20234;-82
2022/01/24 17:43:02;;;;;;;11.23;7.80;;;;;;;6.97;57.11;99535.78;8414570;28;20226;-82
2022/01/24 17:47:23;;;;;;;10.87;7.60;;;;;;;7.40;56.04;99536.38;8414581;28;20241;-83
2022/01/24 17:51:26;;;;;;;11.87;7.77;;;;;;;7.47;55.34;99531.19;8415003;28;20234;-83
2022/01/24 17:55:30;;;;;;;14.57;8.30;;;;;;;7.63;54.39;99533.66;8414795;28;20231;-83
2022/01/24 17:59:34;;;;;;;10.17;7.43;;;;;;;7.41;55.07;99534.66;8412242;28;20231;-83
2022/01/24 18:03:38;;;;;;;11.77;7.60;;;;;;;8.33;52.77;99540.78;8411209;28;20408;-80
2022/01/24 18:07:44;;;;;;;11.43;7.80;;;;;;;7.54;54.22;99531.16;8413372;28;20296;-81
2022/01/24 18:11:47;;;;;;;8.17;7.13;;;;;;;7.08;56.23;99526.25;8412575;28;20241;-83
2022/01/24 18:15:51;;;;;;;10.73;7.37;;;;;;;7.33;54.76;99533.84;8412667;28;20265;-82
2022/01/24 18:19:56;;;;;;;10.30;8.57;;;;;;;7.64;55.00;99529.34;8412465;28;20226;-80
2022/01/24 18:23:59;;;;;;;12.60;8.13;;;;;;;7.45;54.76;99533.78;8412528;28;20261;-81
2022/01/24 18:28:03;;;;;;;10.03;8.33;;;;;;;7.64;54.30;99527.63;8415298;28;20241;-80
2022/01/24 18:32:07;;;;;;;11.43;8.63;;;;;;;7.43;54.65;99528.63;8418610;28;20233;-81
2022/01/24 18:36:12;;;;;;;15.53;10.17;;;;;;;7.80;54.32;99530.06;8418591;28;20246;-82
2022/01/24 18:40:15;;;;;;;12.87;9.33;;;;;;;7.27;55.02;99519.28;8418245;28;20230;-84
2022/01/24 18:44:25;;;;;;;13.47;8.20;;;;;;;7.73;54.62;99529.28;8418474;28;20239;-83
2022/01/24 18:48:28;;;;;;;14.07;10.07;;;;;;;7.66;54.03;99521.59;8418360;28;20231;-82
2022/01/24 18:52:33;;;;;;;10.03;7.97;;;;;;;7.46;54.17;99530.31;8417650;28;20276;-82
2022/01/24 18:56:37;;;;;;;11.63;7.73;;;;;;;7.64;54.06;99521.63;8417706;28;20234;-80
2022/01/24 19:00:40;;;;;;;10.57;8.20;;;;;;;7.81;53.64;99522.34;8417661;28;20237;-82
2022/01/24 19:04:46;;;;;;;14.40;9.03;;;;;;;7.79;53.70;99526.66;8417703;28;20459;-82
2022/01/24 19:08:51;;;;;;;9.60;7.80;;;;;;;7.65;54.14;99523.31;8417812;28;20556;-82
2022/01/24 19:12:54;;;;;;;17.20;12.30;;;;;;;7.44;54.57;99521.75;8417945;28;20344;-81
2022/01/24 19:16:58;;;;;;;13.40;8.13;;;;;;;7.46;54.71;99524.31;8423939;28;20312;-82
2022/01/24 19:25:25;;;;;;;17.87;11.20;;;;;;;7.68;53.88;99528.47;8451081;28;20396;-82
2022/01/24 19:29:28;;;;;;;13.53;11.53;;;;;;;7.50;54.96;99533.72;8429787;28;20532;-82
2022/01/24 19:33:33;;;;;;;13.53;9.43;;;;;;;7.49;54.63;99524.31;8416575;28;20223;-82
2022/01/24 19:37:36;;;;;;;12.30;9.40;;;;;;;7.71;54.24;99531.03;8416388;28;20235;-82
2022/01/24 19:41:45;;;;;;;13.57;8.30;;;;;;;7.70;54.19;99533.59;8416583;28;20230;-82
2022/01/24 19:45:49;;;;;;;21.67;8.37;;;;;;;9.57;77.87;99536.66;8416445;28;20242;-80
2022/01/24 19:49:52;;;;;;;12.07;8.07;;;;;;;10.13;59.44;99525.41;8416579;28;20231;-79
2022/01/24 19:53:57;;;;;;;15.80;9.40;;;;;;;9.78;49.50;99526.84;8443635;28;20234;-80
2022/01/24 19:58:12;;;;;;;11.67;8.27;;;;;;;9.01;51.30;99527.97;8448449;28;20285;-81
2022/01/24 20:02:15;;;;;;;9.73;8.67;;;;;;;8.99;51.49;99530.59;8415951;28;20415;-80
2022/01/24 20:06:19;;;;;;;11.40;8.10;;;;;;;8.82;51.16;99536.84;8415550;28;20235;-81
2022/01/24 20:10:24;;;;;;;11.40;8.90;;;;;;;8.52;51.62;99533.72;8415562;28;20530;-81
2022/01/24 20:14:28;;;;;;;11.40;8.70;;;;;;;8.58;52.30;99537.09;8423498;28;20230;-81
2022/01/24 20:18:32;;;;;;;10.43;8.23;;;;;;;8.60;51.61;99540.53;8448345;28;20231;-82
2022/01/24 20:22:35;;;;;;;8.17;7.30;;;;;;;8.44;51.74;99540.72;8448781;28;20279;-82
2022/01/24 20:26:38;;;;;;;7.60;6.53;;;;;;;8.37;52.32;99532.13;8448736;28;20230;-82
2022/01/24 20:30:45;;;;;;;11.80;10.63;;;;;;;8.29;52.46;99537.38;8448819;28;20525;-82
2022/01/24 20:34:49;;;;;;;11.00;7.90;;;;;;;8.22;52.29;99546.91;8448491;28;20236;-82
2022/01/24 20:38:52;;;;;;;17.30;14.33;;;;;;;8.13;52.83;99534.09;8448406;28;20234;-82
2022/01/24 20:42:55;;;;;;;15.30;12.20;;;;;;;7.91;53.06;99536.00;8447960;28;20237;-82
2022/01/24 20:47:03;;;;;;;13.50;9.93;;;;;;;7.87;53.61;99533.47;8447797;28;20241;-82
2022/01/24 20:51:11;;;;;;;13.10;9.77;;;;;;;7.76;53.69;99536.13;8447865;28;20301;-82
2022/01/24 20:55:14;;;;;;;11.37;9.10;;;;;;;7.72;53.55;99537.03;8447973;28;20396;-82
2022/01/24 20:59:17;;;;;;;12.97;8.80;;;;;;;7.65;53.73;99533.63;8435586;28;20235;-81
2022/01/24 21:03:22;;;;;;;11.23;8.93;;;;;;;7.60;54.13;99532.81;8420621;28;20293;-82
2022/01/24 21:07:25;;;;;;;13.40;8.90;;;;;;;7.62;54.11;99533.66;8429467;28;20289;-83